createdAt,value
2022-11-02T00:00:27.576Z,12.20
2022-11-02T00:02:55.426Z,12.24
2022-11-02T00:05:24.823Z,12.20
2022-11-02T00:07:53.286Z,12.17
2022-11-02T00:10:22.052Z,12.18
2022-11-02T00:12:50.413Z,12.19
2022-11-02T00:15:20.011Z,12.22
2022-11-02T00:17:51.470Z,12.21
2022-11-02T00:20:21.767Z,12.25
2022-11-02T00:22:53.032Z,12.34
2022-11-02T00:25:23.827Z,12.34
2022-11-02T00:27:51.522Z,12.35
2022-11-02T00:30:20.926Z,12.34
2022-11-02T00:32:48.577Z,12.36
2022-11-02T00:35:16.285Z,12.43
2022-11-02T00:37:43.976Z,12.32
2022-11-02T00:40:12.475Z,12.42
2022-11-02T00:42:40.121Z,12.31
2022-11-02T00:45:09.197Z,12.42
2022-11-02T00:47:38.433Z,12.44
2022-11-02T00:50:07.315Z,12.45
2022-11-02T00:52:35.054Z,12.49
2022-11-02T00:55:02.682Z,12.52
2022-11-02T00:57:30.326Z,12.59
2022-11-02T00:59:57.995Z,12.59
2022-11-02T01:02:25.711Z,12.56
2022-11-02T01:04:54.963Z,12.56
2022-11-02T01:07:22.636Z,12.43
2022-11-02T01:09:50.324Z,12.21
2022-11-02T01:12:17.978Z,12.52
2022-11-02T01:14:47.259Z,12.51
2022-11-02T01:17:15.493Z,12.55
2022-11-02T01:19:43.292Z,12.46
2022-11-02T01:22:12.920Z,12.53
2022-11-02T01:24:40.577Z,12.43
2022-11-02T01:27:08.341Z,12.27
2022-11-02T01:29:36.005Z,12.37
2022-11-02T01:32:03.681Z,12.39
2022-11-02T01:34:31.331Z,12.43
2022-11-02T01:36:59.022Z,12.40
2022-11-02T01:39:28.059Z,12.41
2022-11-02T01:41:55.832Z,12.35
2022-11-02T01:44:31.789Z,12.36
2022-11-02T01:47:03.892Z,12.30
2022-11-02T01:49:34.817Z,12.33
2022-11-02T01:52:08.071Z,12.21
2022-11-02T01:54:43.213Z,12.25
2022-11-02T01:57:13.199Z,12.14
2022-11-02T01:59:45.685Z,12.21
2022-11-02T02:02:19.646Z,12.19
2022-11-02T02:04:52.205Z,12.21
2022-11-02T02:07:21.303Z,12.27
2022-11-02T02:09:51.499Z,12.28
2022-11-02T02:12:20.662Z,12.27
2022-11-02T02:14:48.560Z,12.32
2022-11-02T02:17:34.281Z,12.37
2022-11-02T02:20:08.755Z,12.37
2022-11-02T02:23:07.538Z,12.40
2022-11-02T02:26:13.455Z,12.37
2022-11-02T02:28:48.665Z,12.31
2022-11-02T02:31:22.122Z,12.23
2022-11-02T02:33:56.646Z,12.21
2022-11-02T02:36:30.521Z,12.20
2022-11-02T02:39:03.436Z,12.17
2022-11-02T02:41:39.146Z,12.13
2022-11-02T02:44:12.904Z,12.15
2022-11-02T02:46:46.671Z,12.07
2022-11-02T02:49:20.364Z,12.02
2022-11-02T02:51:48.469Z,11.98
2022-11-02T02:54:20.640Z,11.97
2022-11-02T02:56:52.249Z,11.95
2022-11-02T02:59:26.636Z,11.96
2022-11-02T03:01:56.841Z,11.94
2022-11-02T03:04:24.687Z,11.92
2022-11-02T03:06:55.777Z,11.89
2022-11-02T03:09:30.604Z,11.91
2022-11-02T03:12:08.246Z,11.90
2022-11-02T03:14:51.073Z,11.96
2022-11-02T03:17:21.614Z,11.94
2022-11-02T03:19:56.153Z,11.92
2022-11-02T03:22:31.163Z,11.96
2022-11-02T03:25:04.442Z,11.93
2022-11-02T03:27:41.044Z,11.91
2022-11-02T03:30:14.432Z,11.83
2022-11-02T03:32:51.347Z,11.97
2022-11-02T03:35:24.365Z,11.97
2022-11-02T03:37:57.363Z,12.02
2022-11-02T03:40:30.397Z,12.08
2022-11-02T03:43:01.120Z,12.05
2022-11-02T03:45:37.304Z,12.03
2022-11-02T03:48:08.393Z,11.75
2022-11-02T03:50:39.410Z,11.95
2022-11-02T03:53:10.869Z,11.86
2022-11-02T03:55:43.736Z,11.90
2022-11-02T03:58:12.749Z,11.87
2022-11-02T04:00:48.869Z,11.78
2022-11-02T04:03:18.584Z,11.92
2022-11-02T04:05:46.416Z,11.80
2022-11-02T04:08:24.479Z,11.90
2022-11-02T04:11:11.408Z,11.88
2022-11-02T04:13:56.664Z,11.80
2022-11-02T04:16:28.249Z,11.77
2022-11-02T04:19:13.918Z,11.77
2022-11-02T04:22:01.765Z,11.78
2022-11-02T04:24:47.039Z,11.71
2022-11-02T04:27:19.729Z,11.71
2022-11-02T04:29:48.566Z,11.66
2022-11-02T04:32:37.868Z,11.62
2022-11-02T04:35:05.346Z,11.59
2022-11-02T04:37:50.701Z,11.66
2022-11-02T04:40:18.583Z,11.63
2022-11-02T04:42:46.953Z,11.61
2022-11-02T04:45:14.781Z,11.62
2022-11-02T04:47:43.809Z,11.61
2022-11-02T04:50:12.690Z,11.64
2022-11-02T04:52:40.437Z,11.69
2022-11-02T04:55:09.164Z,11.72
2022-11-02T04:57:36.981Z,11.72
2022-11-02T05:00:07.322Z,11.77
2022-11-02T05:02:35.070Z,11.77
2022-11-02T05:05:06.133Z,11.70
2022-11-02T05:07:33.842Z,11.69
2022-11-02T05:10:01.630Z,11.67
2022-11-02T05:12:29.514Z,11.59
2022-11-02T05:14:57.200Z,11.68
2022-11-02T05:17:24.916Z,11.76
2022-11-02T05:19:52.699Z,11.73
2022-11-02T05:22:22.457Z,11.79
2022-11-02T05:24:50.071Z,11.80
2022-11-02T05:27:17.844Z,11.81
2022-11-02T05:29:45.464Z,11.78
2022-11-02T05:32:13.444Z,11.83
2022-11-02T05:34:41.139Z,11.78
2022-11-02T05:37:08.764Z,11.75
2022-11-02T05:39:38.201Z,11.73
2022-11-02T05:42:05.952Z,11.77
2022-11-02T05:44:33.595Z,11.77
2022-11-02T05:47:01.505Z,11.76
2022-11-02T05:49:29.170Z,11.68
2022-11-02T05:51:56.841Z,11.78
2022-11-02T05:54:25.436Z,11.62
2022-11-02T05:56:54.413Z,11.64
2022-11-02T05:59:22.214Z,11.64
2022-11-02T06:01:50.026Z,11.66
2022-11-02T06:04:17.750Z,11.61
2022-11-02T06:06:45.787Z,11.60
2022-11-02T06:09:13.400Z,11.54
2022-11-02T06:11:41.428Z,11.53
2022-11-02T06:14:10.626Z,11.56
2022-11-02T06:16:38.366Z,11.44
2022-11-02T06:19:06.056Z,11.56
2022-11-02T06:21:34.013Z,11.50
2022-11-02T06:24:01.831Z,11.52
2022-11-02T06:26:29.615Z,11.36
2022-11-02T06:28:57.246Z,11.41
2022-11-02T06:31:26.252Z,11.46
2022-11-02T06:33:54.019Z,11.46
2022-11-02T06:36:21.849Z,11.46
2022-11-02T06:38:49.496Z,11.36
2022-11-02T06:41:17.288Z,11.44
2022-11-02T06:43:44.940Z,11.50
2022-11-02T06:46:12.674Z,11.50
2022-11-02T06:48:41.849Z,11.30
2022-11-02T06:51:09.511Z,11.56
2022-11-02T06:53:37.149Z,11.57
2022-11-02T06:56:04.984Z,11.57
2022-11-02T06:58:32.641Z,11.52
2022-11-02T07:01:02.378Z,11.59
2022-11-02T07:03:31.238Z,11.52
2022-11-02T07:06:00.846Z,11.59
2022-11-02T07:08:29.454Z,11.45
2022-11-02T07:10:57.980Z,11.52
2022-11-02T07:13:25.822Z,11.53
2022-11-02T07:15:54.334Z,11.54
2022-11-02T07:18:22.306Z,11.37
2022-11-02T07:20:50.374Z,11.52
2022-11-02T07:23:23.536Z,11.54
2022-11-02T07:25:51.229Z,11.47
2022-11-02T07:28:18.966Z,11.31
2022-11-02T07:30:46.703Z,11.51
2022-11-02T07:33:14.375Z,11.54
2022-11-02T07:35:42.412Z,11.55
2022-11-02T07:38:10.835Z,11.53
2022-11-02T07:40:40.088Z,11.55
2022-11-02T07:43:08.579Z,11.57
2022-11-02T07:45:36.591Z,11.50
2022-11-02T07:48:04.409Z,11.49
2022-11-02T07:50:32.159Z,11.52
2022-11-02T07:53:00.621Z,11.52
2022-11-02T07:55:33.534Z,11.61
2022-11-02T07:58:03.882Z,11.61
2022-11-02T08:00:34.100Z,11.62
2022-11-02T08:03:03.738Z,11.65
2022-11-02T08:05:33.403Z,11.69
2022-11-02T08:08:02.857Z,11.76
2022-11-02T08:10:37.036Z,11.80
2022-11-02T08:13:09.401Z,11.67
2022-11-02T08:15:37.275Z,11.66
2022-11-02T08:18:06.684Z,11.73
2022-11-02T08:20:36.378Z,11.71
2022-11-02T08:23:04.937Z,11.82
2022-11-02T08:25:33.036Z,11.89
2022-11-02T08:28:01.744Z,12.00
2022-11-02T08:30:32.466Z,11.94
2022-11-02T08:33:04.589Z,11.88
2022-11-02T08:35:32.268Z,11.85
2022-11-02T08:38:00.835Z,11.96
2022-11-02T08:40:28.637Z,12.10
2022-11-02T08:43:00.152Z,11.98
2022-11-02T08:45:32.314Z,11.99
2022-11-02T08:48:08.378Z,12.05
2022-11-02T08:50:36.479Z,11.97
2022-11-02T08:53:04.585Z,12.09
2022-11-02T08:55:32.494Z,12.17
2022-11-02T08:58:01.610Z,12.03
2022-11-02T09:00:31.669Z,12.22
2022-11-02T09:03:01.061Z,12.20
2022-11-02T09:05:31.580Z,12.09
2022-11-02T09:08:00.837Z,12.16
2022-11-02T09:10:29.716Z,12.24
2022-11-02T09:12:57.801Z,12.13
2022-11-02T09:15:25.411Z,12.19
2022-11-02T09:17:53.008Z,12.21
2022-11-02T09:20:21.946Z,12.19
2022-11-02T09:22:51.024Z,12.40
2022-11-02T09:25:19.092Z,12.39
2022-11-02T09:27:49.443Z,12.24
2022-11-02T09:30:20.801Z,12.32
2022-11-02T09:32:55.051Z,12.52
2022-11-02T09:35:23.170Z,12.57
2022-11-02T09:37:52.569Z,12.63
2022-11-02T09:40:22.716Z,12.55
2022-11-02T09:43:00.057Z,12.72
2022-11-02T09:45:28.846Z,12.76
2022-11-02T09:48:20.981Z,12.84
2022-11-02T09:50:59.236Z,12.99
2022-11-02T09:53:40.630Z,13.09
2022-11-02T09:56:10.076Z,13.30
2022-11-02T09:58:40.617Z,13.07
2022-11-02T10:01:25.206Z,13.38
2022-11-02T10:04:08.050Z,13.63
2022-11-02T10:06:38.599Z,13.41
2022-11-02T10:09:13.759Z,13.48
2022-11-02T10:11:48.615Z,13.58
2022-11-02T10:14:22.884Z,13.47
2022-11-02T10:16:58.782Z,13.49
2022-11-02T10:19:30.295Z,13.46
2022-11-02T10:21:59.647Z,13.28
2022-11-02T10:24:35.867Z,13.52
2022-11-02T10:27:14.262Z,13.63
2022-11-02T10:29:49.682Z,13.62
2022-11-02T10:32:18.088Z,13.72
2022-11-02T10:34:58.700Z,13.68
2022-11-02T10:37:48.037Z,13.45
2022-11-02T10:40:32.574Z,13.42
2022-11-02T10:43:12.157Z,13.32
2022-11-02T10:46:11.378Z,13.36
2022-11-02T10:48:45.258Z,13.44
2022-11-02T10:51:14.818Z,13.51
2022-11-02T10:53:45.245Z,13.66
2022-11-02T10:56:19.740Z,13.52
2022-11-02T10:58:53.842Z,13.50
2022-11-02T11:01:21.593Z,13.56
2022-11-02T11:03:58.110Z,13.86
2022-11-02T11:06:28.513Z,13.98
2022-11-02T11:09:00.943Z,13.94
2022-11-02T11:11:32.549Z,13.97
2022-11-02T11:16:54.172Z,14.11
2022-11-02T11:22:03.000Z,14.10
2022-11-02T11:24:32.532Z,14.11
2022-11-02T11:27:16.848Z,14.17
2022-11-02T11:29:53.376Z,14.15
2022-11-02T11:32:29.577Z,13.74
2022-11-02T11:35:01.260Z,14.06
2022-11-02T11:37:29.234Z,14.28
2022-11-02T11:40:01.685Z,14.21
2022-11-02T11:42:35.466Z,14.38
2022-11-02T11:45:06.786Z,14.49
2022-11-02T11:47:38.017Z,14.34
2022-11-02T11:50:14.184Z,14.29
2022-11-02T11:53:10.687Z,14.21
2022-11-02T11:55:47.914Z,14.36
2022-11-02T11:58:20.059Z,14.60
2022-11-02T12:01:09.427Z,14.57
2022-11-02T12:03:53.391Z,14.68
2022-11-02T12:06:30.962Z,14.54
2022-11-02T12:09:05.896Z,14.74
2022-11-02T12:11:49.085Z,14.91
2022-11-02T12:14:34.204Z,14.82
2022-11-02T12:17:27.603Z,15.06
2022-11-02T12:20:20.318Z,15.09
2022-11-02T12:22:59.366Z,15.37
2022-11-02T12:25:45.561Z,15.15
2022-11-02T12:28:38.740Z,14.89
2022-11-02T12:31:20.025Z,15.40
2022-11-02T12:34:04.589Z,15.24
2022-11-02T12:37:27.440Z,15.58
2022-11-02T12:39:55.217Z,15.39
2022-11-02T12:42:29.046Z,15.64
2022-11-02T12:45:18.673Z,15.36
2022-11-02T12:47:58.856Z,15.92
2022-11-02T12:50:48.035Z,15.85
2022-11-02T12:53:29.963Z,15.51
2022-11-02T12:56:01.678Z,14.84
2022-11-02T12:58:31.496Z,15.47
2022-11-02T13:01:12.336Z,15.80
2022-11-02T13:03:52.398Z,15.66
2022-11-02T13:06:26.477Z,15.47
2022-11-02T13:08:57.746Z,15.32
2022-11-02T13:11:31.804Z,15.21
2022-11-02T13:14:00.829Z,15.46
2022-11-02T13:16:39.822Z,15.14
2022-11-02T13:19:16.718Z,15.13
2022-11-02T13:21:49.548Z,15.58
2022-11-02T13:24:25.095Z,15.27
2022-11-02T13:27:07.401Z,15.24
2022-11-02T13:29:46.078Z,15.19
2022-11-02T13:32:22.311Z,15.76
2022-11-02T13:34:55.001Z,15.81
2022-11-02T13:37:27.579Z,15.54
2022-11-02T13:39:59.139Z,15.70
2022-11-02T13:42:46.755Z,15.82
2022-11-02T13:45:30.166Z,16.00
2022-11-02T13:48:30.576Z,15.90
2022-11-02T13:51:05.571Z,15.65
2022-11-02T13:53:37.668Z,15.38
2022-11-02T13:56:10.331Z,15.64
2022-11-02T13:58:42.211Z,15.57
2022-11-02T14:01:12.663Z,15.37
2022-11-02T14:03:50.074Z,15.35
2022-11-02T14:06:20.638Z,15.25
2022-11-02T14:08:52.857Z,15.63
2022-11-02T14:11:48.040Z,15.51
2022-11-02T14:14:25.016Z,15.58
2022-11-02T14:17:04.252Z,15.66
2022-11-02T14:19:53.052Z,15.60
2022-11-02T14:22:22.318Z,15.56
2022-11-02T14:25:08.299Z,15.54
2022-11-02T14:27:36.808Z,15.18
2022-11-02T14:30:04.987Z,15.30
2022-11-02T14:32:50.169Z,15.07
2022-11-02T14:35:30.807Z,14.69
2022-11-02T14:38:20.825Z,14.83
2022-11-02T14:40:55.203Z,14.44
2022-11-02T14:44:05.809Z,14.47
2022-11-02T14:46:56.537Z,14.26
2022-11-02T14:49:27.956Z,14.40
2022-11-02T14:52:03.899Z,14.03
2022-11-02T14:54:39.716Z,14.17
2022-11-02T14:57:21.715Z,14.30
2022-11-02T14:59:53.321Z,14.22
2022-11-02T15:02:25.483Z,14.37
2022-11-02T15:04:55.494Z,13.85
2022-11-02T15:07:28.204Z,13.90
2022-11-02T15:09:59.352Z,14.10
2022-11-02T15:12:38.818Z,13.91
2022-11-02T15:15:30.793Z,13.86
2022-11-02T15:18:21.645Z,13.90
2022-11-02T15:21:26.681Z,13.81
2022-11-02T15:24:16.606Z,13.73
2022-11-02T15:26:55.884Z,13.52
2022-11-02T15:29:36.954Z,13.23
2022-11-02T15:32:07.232Z,13.31
2022-11-02T15:34:37.995Z,13.41
2022-11-02T15:37:06.554Z,13.34
2022-11-02T15:39:34.646Z,13.29
2022-11-02T15:42:08.622Z,13.28
2022-11-02T15:45:14.152Z,13.11
2022-11-02T15:48:02.527Z,12.99
2022-11-02T15:50:47.292Z,13.04
2022-11-02T15:53:36.825Z,12.94
2022-11-02T15:56:17.089Z,12.78
2022-11-02T15:59:03.744Z,12.74
2022-11-02T16:01:31.627Z,12.69
2022-11-02T16:04:02.924Z,12.65
2022-11-02T16:06:33.813Z,12.57
2022-11-02T16:09:02.910Z,12.41
2022-11-02T16:11:31.968Z,12.32
2022-11-02T16:14:17.473Z,12.00
2022-11-02T16:16:49.101Z,11.84
2022-11-02T16:19:20.082Z,11.73
2022-11-02T16:21:48.291Z,11.81
2022-11-02T16:24:16.690Z,11.73
2022-11-02T16:26:47.300Z,11.72
2022-11-02T16:29:31.261Z,11.21
2022-11-02T16:31:59.096Z,11.42
2022-11-02T16:34:30.981Z,11.19
2022-11-02T16:37:00.029Z,11.02
2022-11-02T16:39:30.384Z,11.01
2022-11-02T16:42:00.415Z,11.05
2022-11-02T16:44:31.493Z,10.94
2022-11-02T16:47:01.390Z,10.82
2022-11-02T16:49:29.693Z,10.64
2022-11-02T16:51:59.359Z,10.38
2022-11-02T16:54:41.193Z,10.36
2022-11-02T16:57:16.939Z,10.13
2022-11-02T16:59:52.246Z,10.07
2022-11-02T17:02:26.008Z,10.02
2022-11-02T17:05:02.530Z,10.00
2022-11-02T17:07:36.889Z,9.94
2022-11-02T17:10:07.114Z,9.98
2022-11-02T17:12:38.049Z,9.88
2022-11-02T17:15:16.975Z,9.85
2022-11-02T17:17:45.320Z,9.79
2022-11-02T17:20:22.059Z,9.79
2022-11-02T17:22:52.807Z,9.71
2022-11-02T17:25:22.975Z,9.73
2022-11-02T17:27:51.034Z,9.74
2022-11-02T17:30:47.543Z,9.76
2022-11-02T17:33:25.045Z,9.86
2022-11-02T17:35:55.029Z,10.02
2022-11-02T17:38:26.527Z,10.06
2022-11-02T17:40:54.862Z,9.98
2022-11-02T17:43:23.509Z,10.09
2022-11-02T17:45:59.621Z,10.05
2022-11-02T17:48:28.892Z,10.09
2022-11-02T17:50:59.580Z,10.14
2022-11-02T17:53:27.514Z,10.26
2022-11-02T17:55:56.193Z,10.24
2022-11-02T17:58:23.834Z,10.16
2022-11-02T18:00:53.987Z,10.04
2022-11-02T18:03:29.792Z,10.04
2022-11-02T18:06:00.346Z,9.95
2022-11-02T18:08:28.513Z,9.90
2022-11-02T18:10:56.718Z,9.90
2022-11-02T18:13:25.206Z,9.89
2022-11-02T18:15:52.838Z,9.97
2022-11-02T18:18:20.553Z,9.88
2022-11-02T18:20:49.586Z,9.97
2022-11-02T18:23:19.718Z,9.87
2022-11-02T18:25:47.960Z,9.90
2022-11-02T18:28:15.594Z,9.89
2022-11-02T18:30:44.207Z,10.14
2022-11-02T18:33:13.715Z,10.01
2022-11-02T18:35:42.265Z,10.00
2022-11-02T18:38:11.642Z,10.24
2022-11-02T18:40:39.310Z,10.18
2022-11-02T18:43:07.312Z,10.14
2022-11-02T18:45:35.203Z,10.19
2022-11-02T18:48:03.172Z,10.09
2022-11-02T18:50:31.116Z,10.05
2022-11-02T18:52:58.826Z,10.12
2022-11-02T18:55:27.794Z,10.11
2022-11-02T18:57:56.511Z,10.17
2022-11-02T19:00:24.179Z,10.19
2022-11-02T19:02:51.902Z,10.25
2022-11-02T19:05:37.246Z,10.34
2022-11-02T19:08:22.504Z,10.32
2022-11-02T19:10:52.193Z,10.33
2022-11-02T19:13:19.834Z,10.46
2022-11-02T19:15:47.502Z,10.47
2022-11-02T19:18:15.172Z,10.38
2022-11-02T19:20:42.855Z,10.37
2022-11-02T19:23:11.224Z,10.35
2022-11-02T19:25:39.012Z,10.21
2022-11-02T19:28:09.413Z,10.23
2022-11-02T19:30:38.553Z,10.18
2022-11-02T19:33:06.567Z,10.22
2022-11-02T19:35:35.590Z,10.28
2022-11-02T19:38:03.316Z,10.30
2022-11-02T19:40:31.001Z,10.36
2022-11-02T19:42:58.647Z,10.32
2022-11-02T19:45:27.880Z,10.34
2022-11-02T19:47:55.539Z,10.38
2022-11-02T19:50:23.170Z,10.38
2022-11-02T19:52:50.844Z,10.54
2022-11-02T19:55:18.490Z,10.43
2022-11-02T19:57:46.139Z,10.54
2022-11-02T20:00:15.163Z,10.47
2022-11-02T20:02:44.294Z,10.46
2022-11-02T20:05:14.546Z,10.34
2022-11-02T20:07:42.266Z,10.36
2022-11-02T20:10:10.978Z,10.58
2022-11-02T20:12:38.697Z,10.51
2022-11-02T20:15:07.915Z,10.51
2022-11-02T20:17:52.048Z,10.43
2022-11-02T20:20:24.843Z,10.36
2022-11-02T20:22:52.578Z,10.25
2022-11-02T20:25:20.211Z,10.32
2022-11-02T20:27:47.800Z,10.37
2022-11-02T20:30:15.480Z,10.34
2022-11-02T20:32:43.560Z,10.39
2022-11-02T20:35:13.758Z,10.32
2022-11-02T20:37:43.087Z,10.33
2022-11-02T20:40:11.840Z,10.38
2022-11-02T20:42:39.550Z,10.43
2022-11-02T20:45:08.371Z,10.47
2022-11-02T20:47:36.048Z,10.42
2022-11-02T20:50:03.744Z,10.38
2022-11-02T20:52:31.408Z,10.47
2022-11-02T20:55:00.437Z,10.46
2022-11-02T20:57:28.920Z,10.37
2022-11-02T20:59:56.553Z,10.42
2022-11-02T21:02:24.718Z,10.47
2022-11-02T21:04:52.506Z,10.41
2022-11-02T21:07:20.141Z,10.36
2022-11-02T21:09:47.897Z,10.42
2022-11-02T21:12:34.241Z,10.47
2022-11-02T21:15:02.427Z,10.51
2022-11-02T21:17:30.231Z,10.51
2022-11-02T21:20:08.110Z,10.51
2022-11-02T21:22:45.778Z,10.52
2022-11-02T21:25:13.457Z,10.56
2022-11-02T21:27:42.501Z,10.41
2022-11-02T21:30:11.175Z,10.47
2022-11-02T21:32:38.866Z,10.46
2022-11-02T21:35:07.570Z,10.46
2022-11-02T21:37:35.267Z,10.39
2022-11-02T21:40:04.210Z,10.33
2022-11-02T21:42:31.863Z,10.36
2022-11-02T21:45:00.957Z,10.22
2022-11-02T21:47:34.053Z,10.49
2022-11-02T21:50:02.662Z,10.48
2022-11-02T21:52:30.301Z,10.27
2022-11-02T21:54:57.921Z,10.36
2022-11-02T21:57:25.598Z,10.33
2022-11-02T21:59:53.234Z,10.25
2022-11-02T22:02:22.502Z,10.18
2022-11-02T22:04:53.627Z,10.23
2022-11-02T22:07:21.472Z,10.29
2022-11-02T22:09:49.126Z,10.28
2022-11-02T22:12:34.157Z,10.20
2022-11-02T22:15:01.856Z,10.10
2022-11-02T22:20:18.498Z,10.14
2022-11-02T22:22:46.340Z,10.04
2022-11-02T22:25:13.953Z,9.98
2022-11-02T22:27:41.746Z,9.92
2022-11-02T22:30:10.258Z,9.84
2022-11-02T22:32:39.294Z,9.92
2022-11-02T22:35:08.174Z,9.94
2022-11-02T22:37:53.541Z,9.86
2022-11-02T22:40:21.192Z,9.82
2022-11-02T22:42:48.829Z,9.82
2022-11-02T22:45:17.031Z,9.83
2022-11-02T22:47:46.069Z,9.83
2022-11-02T22:50:13.776Z,9.85
2022-11-02T22:52:41.392Z,9.92
2022-11-02T22:55:10.605Z,9.91
2022-11-02T22:57:38.259Z,9.96
2022-11-02T23:00:07.031Z,9.89
2022-11-02T23:02:34.688Z,10.01
2022-11-02T23:05:03.754Z,9.97
2022-11-02T23:07:31.446Z,10.04
2022-11-02T23:09:59.100Z,10.00
2022-11-02T23:12:25.737Z,9.98
2022-11-02T23:14:53.393Z,10.02
2022-11-02T23:17:21.061Z,10.03
2022-11-02T23:19:47.704Z,9.98
2022-11-02T23:22:34.609Z,9.93
2022-11-02T23:25:14.112Z,9.96
2022-11-02T23:28:03.085Z,9.97
2022-11-02T23:30:50.445Z,9.95
2022-11-02T23:33:18.801Z,10.04
2022-11-02T23:36:04.128Z,9.95
2022-11-02T23:38:47.041Z,9.90
2022-11-02T23:41:14.742Z,9.86
2022-11-02T23:43:42.415Z,9.83
2022-11-02T23:46:10.114Z,9.86
2022-11-02T23:48:37.732Z,9.84
2022-11-02T23:51:23.337Z,9.74
2022-11-02T23:54:09.884Z,9.61
2022-11-02T23:56:46.580Z,9.78
2022-11-02T23:59:17.004Z,9.89
